Time;durP1;ratioP1;P1;durP2;ratioP2;P2;SDS_P1;SDS_P2;PMS_P1;PMS_P2;Temp;Humidity;BMP_temperature;BMP_pressure;BME280_temperature;BME280_humidity;BME280_pressure;Samples;Min_cycle;Max_cycle;Signal;HPM_P1;HPM_P2
2024/03/12 00:00:15;;;;;;;1.30;1.20;;;5.80;99.90;;;;;;5061159;28;20507;-81
2024/03/12 00:02:44;;;;;;;2.13;1.10;;;5.70;99.90;;;;;;5061163;28;20513;-81
2024/03/12 00:05:14;;;;;;;0.93;0.93;;;7.40;99.90;;;;;;5061498;28;20789;-81
2024/03/12 00:07:44;;;;;;;1.83;1.40;;;5.60;99.90;;;;;;5060851;28;20516;-81
2024/03/12 00:10:15;;;;;;;0.93;0.70;;;5.70;99.90;;;;;;5063983;28;20445;-81
2024/03/12 00:12:48;;;;;;;1.10;1.00;;;5.70;99.90;;;;;;5064011;28;20442;-81
2024/03/12 00:15:17;;;;;;;1.03;0.83;;;5.70;99.90;;;;;;5066020;28;20452;-81
2024/03/12 00:17:44;;;;;;;0.87;0.87;;;5.70;99.90;;;;;;5064479;28;20520;-81
2024/03/12 00:20:17;;;;;;;1.80;1.50;;;5.70;99.90;;;;;;5065201;28;20484;-81
2024/03/12 00:22:45;;;;;;;1.43;1.23;;;5.60;99.90;;;;;;5065823;28;20534;-81
2024/03/12 00:25:14;;;;;;;2.70;1.00;;;5.60;99.90;;;;;;5066003;28;20477;-81
2024/03/12 00:27:41;;;;;;;0.80;0.80;;;5.60;99.90;;;;;;5066001;28;20450;-81
2024/03/12 00:30:10;;;;;;;1.00;1.00;;;5.60;99.90;;;;;;5065450;28;20454;-81
2024/03/12 00:32:38;;;;;;;0.77;0.77;;;5.60;99.90;;;;;;5064228;28;20847;-81
2024/03/12 00:35:06;;;;;;;0.90;0.90;;;5.60;99.90;;;;;;5065078;28;20430;-81
2024/03/12 00:37:33;;;;;;;1.80;1.10;;;5.60;99.90;;;;;;5067626;28;20504;-81
2024/03/12 00:40:00;;;;;;;2.87;0.80;;;5.60;99.90;;;;;;5064631;28;20487;-81
2024/03/12 00:42:26;;;;;;;0.93;0.83;;;6.00;99.90;;;;;;5064668;28;20434;-81
2024/03/12 00:44:53;;;;;;;5.60;1.30;;;5.90;99.90;;;;;;5064917;28;20502;-81
2024/03/12 00:47:22;;;;;;;6.17;0.90;;;5.60;99.90;;;;;;5062867;28;20499;-81
2024/03/12 00:49:50;;;;;;;1.80;0.77;;;6.80;99.90;;;;;;5063102;28;20492;-81
2024/03/12 00:52:17;;;;;;;0.90;0.90;;;5.80;99.90;;;;;;5063170;28;20479;-81
2024/03/12 00:54:45;;;;;;;1.00;1.00;;;5.50;99.90;;;;;;5062952;28;20450;-81
2024/03/12 00:57:13;;;;;;;1.47;0.83;;;5.50;99.90;;;;;;5062964;28;20879;-81
2024/03/12 00:59:40;;;;;;;0.73;0.73;;;5.50;99.90;;;;;;5062944;28;20446;-81
2024/03/12 01:02:10;;;;;;;1.00;0.70;;;5.50;99.90;;;;;;5062886;28;20446;-81
2024/03/12 01:04:39;;;;;;;0.90;0.90;;;5.50;99.90;;;;;;5062898;28;20519;-81
2024/03/12 01:07:07;;;;;;;1.03;1.03;;;5.70;99.90;;;;;;5063026;28;20454;-81
2024/03/12 01:09:39;;;;;;;0.70;0.70;;;6.60;99.90;;;;;;5062747;28;20449;-81
2024/03/12 01:12:09;;;;;;;1.00;0.80;;;5.40;99.90;;;;;;5063119;28;20464;-81
2024/03/12 01:14:36;;;;;;;0.50;0.50;;;5.50;99.90;;;;;;5063176;28;20461;-80
2024/03/12 01:17:06;;;;;;;1.87;1.23;;;5.40;99.90;;;;;;5063326;28;20470;-81
2024/03/12 01:19:33;;;;;;;0.73;0.70;;;5.50;99.90;;;;;;5061868;28;20454;-81
2024/03/12 01:22:02;;;;;;;0.90;0.90;;;5.50;99.90;;;;;;5068152;28;20434;-81
2024/03/12 01:24:29;;;;;;;0.93;0.80;;;5.50;99.90;;;;;;5062118;28;20541;-81
2024/03/12 01:26:56;;;;;;;0.70;0.70;;;5.40;99.90;;;;;;5061295;28;20461;-81
2024/03/12 01:29:24;;;;;;;1.93;1.03;;;5.40;99.90;;;;;;5062383;28;20446;-80
2024/03/12 01:31:52;;;;;;;0.70;0.70;;;5.40;99.90;;;;;;5062406;28;20506;-80
2024/03/12 01:34:22;;;;;;;0.47;0.47;;;5.30;99.90;;;;;;5061821;28;20481;-80
2024/03/12 01:36:49;;;;;;;0.40;0.40;;;5.30;99.90;;;;;;5062468;28;20438;-80
2024/03/12 01:39:24;;;;;;;0.70;0.70;;;5.30;99.90;;;;;;5062359;28;20457;-80
2024/03/12 01:41:52;;;;;;;0.83;0.57;;;5.30;99.90;;;;;;5062718;28;20564;-81
2024/03/12 01:44:19;;;;;;;0.93;0.93;;;6.30;99.90;;;;;;5062248;28;20444;-80
2024/03/12 01:46:55;;;;;;;0.60;0.60;;;5.20;99.90;;;;;;5062181;28;20509;-80
2024/03/12 01:49:22;;;;;;;0.60;0.60;;;5.10;99.90;;;;;;5062302;28;20510;-80
2024/03/12 01:51:49;;;;;;;1.80;0.80;;;5.10;99.90;;;;;;5062125;28;20453;-81
2024/03/12 01:54:18;;;;;;;2.00;0.70;;;5.10;99.90;;;;;;5062186;28;20524;-81
2024/03/12 01:56:47;;;;;;;1.30;0.87;;;5.10;99.90;;;;;;5062165;28;21010;-81
2024/03/12 01:59:15;;;;;;;1.00;0.60;;;4.50;99.90;;;;;;5061808;28;20464;-81
2024/03/12 02:01:42;;;;;;;0.50;0.50;;;4.90;99.90;;;;;;5062352;28;20832;-81
2024/03/12 02:04:10;;;;;;;3.03;0.90;;;4.90;99.90;;;;;;5062712;28;20479;-81
2024/03/12 02:06:38;;;;;;;0.50;0.50;;;4.90;99.90;;;;;;5062560;28;20457;-81
2024/03/12 02:09:06;;;;;;;0.70;0.70;;;6.20;99.90;;;;;;5062190;28;20493;-81
2024/03/12 02:11:35;;;;;;;1.23;1.13;;;4.90;99.90;;;;;;5062276;28;20438;-81
2024/03/12 02:14:02;;;;;;;0.60;0.60;;;5.50;99.90;;;;;;5062015;28;20450;-80
2024/03/12 02:16:29;;;;;;;0.50;0.50;;;4.90;99.90;;;;;;5061770;28;21003;-81
2024/03/12 02:18:56;;;;;;;0.70;0.70;;;4.80;99.90;;;;;;5062678;28;20550;-81
2024/03/12 02:21:24;;;;;;;1.00;0.50;;;4.90;99.90;;;;;;5062245;28;20470;-81
2024/03/12 02:23:53;;;;;;;0.80;0.73;;;5.00;99.90;;;;;;5062322;28;20453;-80
2024/03/12 02:26:20;;;;;;;1.00;0.90;;;5.70;99.90;;;;;;5063375;28;20533;-80
2024/03/12 02:28:47;;;;;;;0.90;0.90;;;4.90;99.90;;;;;;5062346;28;20469;-81
2024/03/12 02:31:14;;;;;;;2.90;0.93;;;4.90;99.90;;;;;;5062055;28;20445;-81
2024/03/12 02:33:41;;;;;;;0.77;0.63;;;4.90;99.90;;;;;;5061620;28;20524;-80
2024/03/12 02:36:09;;;;;;;0.83;0.70;;;4.90;99.90;;;;;;5061163;28;20516;-80
2024/03/12 02:38:38;;;;;;;0.90;0.60;;;4.80;99.90;;;;;;5063777;28;20481;-80
2024/03/12 02:41:07;;;;;;;0.77;0.60;;;4.80;99.90;;;;;;5064215;28;20485;-81
2024/03/12 02:43:34;;;;;;;1.43;0.80;;;3.60;99.90;;;;;;5061987;28;20438;-81
2024/03/12 02:46:01;;;;;;;0.60;0.60;;;4.80;99.90;;;;;;5061656;28;20445;-81
2024/03/12 02:48:29;;;;;;;1.67;1.27;;;4.80;99.90;;;;;;5060895;28;20548;-81
2024/03/12 02:50:56;;;;;;;0.70;0.60;;;6.30;99.90;;;;;;5061397;28;20453;-81
2024/03/12 02:53:24;;;;;;;1.20;1.10;;;5.10;99.90;;;;;;5062595;28;20454;-81
2024/03/12 02:55:52;;;;;;;0.60;0.50;;;4.80;99.90;;;;;;5061766;28;20449;-80
2024/03/12 02:58:25;;;;;;;1.87;0.90;;;4.80;99.90;;;;;;5061807;28;20466;-80
2024/03/12 03:00:53;;;;;;;1.40;0.73;;;3.60;99.90;;;;;;5061934;28;20474;-80
2024/03/12 03:03:20;;;;;;;1.50;0.70;;;4.80;99.90;;;;;;5062109;28;20434;-80
2024/03/12 03:05:49;;;;;;;0.50;0.50;;;6.40;99.90;;;;;;5062998;28;20510;-81
2024/03/12 03:08:17;;;;;;;0.73;0.63;;;4.80;99.90;;;;;;5063635;28;20552;-80
2024/03/12 03:10:44;;;;;;;0.83;0.70;;;4.90;99.90;;;;;;5063326;28;20457;-81
2024/03/12 03:13:11;;;;;;;0.60;0.60;;;5.90;99.90;;;;;;5065394;28;20437;-80
2024/03/12 03:15:40;;;;;;;0.80;0.80;;;5.10;99.90;;;;;;5077428;28;20430;-80
2024/03/12 03:18:07;;;;;;;1.10;0.73;;;5.60;99.90;;;;;;5077055;28;20470;-81
2024/03/12 03:20:35;;;;;;;1.17;0.70;;;5.30;99.90;;;;;;5078784;28;20473;-81
2024/03/12 03:23:02;;;;;;;0.60;0.50;;;5.30;99.90;;;;;;5078469;28;20461;-81
2024/03/12 03:25:29;;;;;;;1.07;1.07;;;6.00;99.90;;;;;;5058656;28;20527;-80
2024/03/12 03:27:57;;;;;;;1.50;0.57;;;5.40;99.90;;;;;;5062111;28;20978;-81
2024/03/12 03:30:24;;;;;;;0.60;0.60;;;5.40;99.90;;;;;;5062290;28;20454;-81
2024/03/12 03:32:53;;;;;;;1.40;0.87;;;5.50;99.90;;;;;;5063355;28;20460;-81
2024/03/12 03:35:20;;;;;;;1.30;1.10;;;5.50;99.90;;;;;;5063618;28;20450;-82
2024/03/12 03:37:47;;;;;;;0.50;0.50;;;6.20;99.90;;;;;;5062871;28;20523;-81
2024/03/12 03:40:22;;;;;;;3.10;1.07;;;6.10;99.90;;;;;;5063924;28;20476;-80
2024/03/12 03:42:51;;;;;;;0.70;0.70;;;5.60;99.90;;;;;;5063923;28;20453;-82
2024/03/12 03:45:19;;;;;;;1.43;0.70;;;5.60;99.90;;;;;;5067349;28;20453;-80
2024/03/12 03:47:47;;;;;;;0.50;0.50;;;6.80;99.90;;;;;;5067785;28;20500;-81
2024/03/12 03:50:15;;;;;;;1.03;0.50;;;5.70;99.90;;;;;;5067124;28;20438;-81
2024/03/12 03:52:43;;;;;;;0.60;0.57;;;5.70;99.90;;;;;;5066554;28;20465;-81
2024/03/12 03:55:11;;;;;;;1.83;1.13;;;5.70;99.90;;;;;;5067826;28;20450;-81
2024/03/12 03:57:39;;;;;;;2.53;0.77;;;5.70;99.90;;;;;;5067310;28;20478;-81
2024/03/12 04:00:14;;;;;;;1.10;0.67;;;5.70;99.90;;;;;;5067879;28;20429;-80
2024/03/12 04:02:43;;;;;;;2.33;0.70;;;5.80;99.90;;;;;;5076833;28;20480;-80
2024/03/12 04:05:10;;;;;;;1.03;1.00;;;5.80;99.90;;;;;;5081915;28;20472;-81
2024/03/12 04:07:40;;;;;;;0.40;0.40;;;5.20;99.90;;;;;;5081110;28;20470;-81
2024/03/12 04:10:10;;;;;;;1.27;0.60;;;5.90;99.90;;;;;;5081336;28;20472;-80
2024/03/12 04:12:40;;;;;;;1.30;0.73;;;5.90;99.90;;;;;;5067418;28;20449;-81
2024/03/12 04:15:09;;;;;;;0.70;0.60;;;5.90;99.90;;;;;;5066867;28;20446;-80
2024/03/12 04:17:37;;;;;;;0.73;0.73;;;5.80;99.90;;;;;;5066733;28;20485;-80
2024/03/12 04:20:09;;;;;;;0.90;0.80;;;5.80;99.90;;;;;;5066278;28;20491;-80
2024/03/12 04:22:36;;;;;;;3.10;0.60;;;5.80;99.90;;;;;;5065890;28;20493;-80
2024/03/12 04:25:05;;;;;;;1.33;1.23;;;5.90;99.90;;;;;;5066109;28;20481;-81
2024/03/12 04:27:36;;;;;;;1.53;0.60;;;5.90;99.90;;;;;;5066162;28;20473;-80
2024/03/12 04:30:05;;;;;;;0.60;0.60;;;5.90;99.90;;;;;;5066661;28;20434;-80
2024/03/12 04:32:32;;;;;;;0.60;0.50;;;5.80;99.90;;;;;;5066969;28;20442;-81
2024/03/12 04:35:04;;;;;;;0.80;0.80;;;5.90;99.90;;;;;;5066995;28;20437;-81
2024/03/12 04:37:35;;;;;;;1.10;1.00;;;5.80;99.90;;;;;;5066134;28;20458;-80
2024/03/12 04:40:06;;;;;;;1.33;1.03;;;5.80;99.90;;;;;;5066783;28;20777;-80
2024/03/12 04:42:34;;;;;;;0.40;0.40;;;5.90;99.90;;;;;;5066358;28;20474;-81
2024/03/12 04:45:04;;;;;;;1.60;0.53;;;5.80;99.90;;;;;;5066603;28;20459;-80
2024/03/12 04:47:32;;;;;;;0.60;0.57;;;5.90;99.90;;;;;;5065872;28;20911;-81
2024/03/12 04:49:59;;;;;;;0.70;0.70;;;5.90;99.90;;;;;;5065808;28;20457;-81
2024/03/12 04:52:26;;;;;;;0.80;0.80;;;6.00;99.90;;;;;;5065407;28;20541;-81
2024/03/12 04:54:54;;;;;;;1.33;0.50;;;6.00;99.90;;;;;;5064691;28;20833;-81
2024/03/12 04:57:25;;;;;;;1.30;0.70;;;6.00;99.90;;;;;;5065907;28;20970;-81
2024/03/12 04:59:54;;;;;;;3.40;0.80;;;6.50;99.90;;;;;;5065478;28;20934;-82
2024/03/12 05:02:22;;;;;;;0.83;0.70;;;6.10;99.90;;;;;;5065479;28;20865;-80
2024/03/12 05:04:50;;;;;;;0.97;0.80;;;5.90;99.90;;;;;;5065363;28;20438;-81
2024/03/12 05:07:17;;;;;;;0.50;0.50;;;6.10;99.90;;;;;;5064384;28;20459;-80
2024/03/12 05:09:44;;;;;;;0.80;0.80;;;6.10;99.90;;;;;;5064222;28;20504;-81
2024/03/12 05:12:11;;;;;;;0.90;0.80;;;6.10;99.90;;;;;;5064566;28;20448;-81
2024/03/12 05:14:41;;;;;;;0.60;0.50;;;6.20;99.90;;;;;;5065337;28;20450;-81
2024/03/12 05:17:08;;;;;;;0.87;0.70;;;6.10;99.90;;;;;;5068670;28;20481;-81
2024/03/12 05:19:36;;;;;;;1.43;1.33;;;6.10;99.90;;;;;;5065780;28;20802;-81
2024/03/12 05:22:04;;;;;;;0.70;0.70;;;6.10;99.90;;;;;;5063707;28;20474;-81
2024/03/12 05:24:33;;;;;;;0.50;0.50;;;6.10;99.90;;;;;;5063213;28;20564;-82
2024/03/12 05:27:01;;;;;;;1.00;0.87;;;6.10;99.90;;;;;;5064055;28;20450;-80
2024/03/12 05:29:42;;;;;;;0.77;0.77;;;6.10;99.90;;;;;;5064990;28;20450;-81
2024/03/12 05:32:18;;;;;;;1.00;0.90;;;6.10;99.90;;;;;;5064886;28;20442;-81
2024/03/12 05:34:47;;;;;;;1.33;0.90;;;6.10;99.90;;;;;;5065153;28;20450;-80
2024/03/12 05:37:28;;;;;;;0.77;0.77;;;6.10;99.90;;;;;;5063794;28;20479;-80
2024/03/12 05:40:14;;;;;;;1.10;1.10;;;6.10;99.90;;;;;;5063236;28;20441;-80
2024/03/12 05:48:13;;;;;;;1.97;0.80;;;6.20;99.90;;;;;;5063496;28;20445;-81
2024/03/12 05:50:41;;;;;;;0.80;0.60;;;6.20;99.90;;;;;;5063578;28;20481;-81
2024/03/12 05:53:08;;;;;;;0.50;0.50;;;6.20;99.90;;;;;;5062522;28;20442;-80
2024/03/12 05:55:36;;;;;;;3.43;0.80;;;6.20;99.90;;;;;;5062859;28;20461;-81
2024/03/12 05:58:04;;;;;;;0.63;0.63;;;6.20;99.90;;;;;;5063797;28;20527;-81
2024/03/12 06:00:32;;;;;;;0.87;0.70;;;6.20;99.90;;;;;;5063058;28;20485;-82
2024/03/12 06:02:59;;;;;;;2.57;0.80;;;6.30;99.90;;;;;;5064072;28;20500;-81
2024/03/12 06:05:28;;;;;;;0.70;0.70;;;6.30;99.90;;;;;;5066146;28;20458;-81
2024/03/12 06:07:55;;;;;;;0.90;0.83;;;6.30;99.90;;;;;;5064353;28;20531;-81
2024/03/12 06:10:22;;;;;;;0.63;0.57;;;6.40;99.90;;;;;;5064383;28;20938;-81
2024/03/12 06:12:49;;;;;;;2.00;0.90;;;6.30;99.90;;;;;;5063602;28;20538;-81
2024/03/12 06:15:16;;;;;;;0.63;0.50;;;6.30;99.90;;;;;;5063853;28;20430;-81
2024/03/12 06:17:46;;;;;;;0.73;0.73;;;6.40;99.90;;;;;;5063873;28;20469;-80
2024/03/12 06:20:13;;;;;;;0.80;0.80;;;6.50;99.90;;;;;;5064473;28;20517;-81
2024/03/12 06:22:43;;;;;;;0.73;0.70;;;6.50;99.90;;;;;;5062204;28;20477;-82
2024/03/12 06:25:10;;;;;;;1.80;0.77;;;6.40;99.90;;;;;;5063735;28;20478;-82
2024/03/12 06:27:38;;;;;;;0.80;0.70;;;6.50;99.90;;;;;;5063201;28;20465;-81
2024/03/12 06:30:05;;;;;;;0.60;0.60;;;6.60;99.90;;;;;;5062518;28;20434;-82
2024/03/12 06:32:32;;;;;;;0.40;0.40;;;6.60;99.90;;;;;;5063632;28;20476;-82
2024/03/12 06:35:00;;;;;;;0.80;0.80;;;6.60;99.90;;;;;;5063207;28;20434;-81
2024/03/12 06:37:27;;;;;;;0.60;0.60;;;6.60;99.90;;;;;;5062552;28;21169;-81
2024/03/12 06:39:56;;;;;;;1.20;0.67;;;6.60;99.90;;;;;;5062489;28;20434;-82
2024/03/12 06:42:25;;;;;;;0.70;0.70;;;6.60;99.90;;;;;;5062257;28;20541;-82
2024/03/12 06:44:54;;;;;;;1.00;0.80;;;6.70;99.90;;;;;;5063049;28;20445;-81
2024/03/12 06:47:22;;;;;;;0.43;0.43;;;6.70;99.90;;;;;;5061816;28;20473;-81
2024/03/12 06:49:49;;;;;;;0.63;0.63;;;6.70;99.90;;;;;;5059885;28;20453;-82
2024/03/12 06:52:16;;;;;;;1.17;0.50;;;6.80;99.90;;;;;;5058951;28;20821;-82
2024/03/12 06:54:44;;;;;;;0.67;0.67;;;6.90;99.90;;;;;;5077089;28;20501;-81
2024/03/12 06:57:12;;;;;;;0.80;0.60;;;7.10;99.90;;;;;;5079269;28;20464;-82
2024/03/12 06:59:40;;;;;;;1.23;0.70;;;7.10;99.90;;;;;;5079459;28;20434;-82
2024/03/12 07:02:08;;;;;;;0.83;0.50;;;7.20;99.90;;;;;;5071689;28;20509;-82
2024/03/12 07:04:43;;;;;;;0.60;0.60;;;8.80;99.90;;;;;;5057849;28;20515;-81
2024/03/12 07:07:11;;;;;;;2.97;0.70;;;7.30;99.90;;;;;;5056244;28;20989;-82
2024/03/12 07:09:41;;;;;;;0.50;0.50;;;7.30;99.90;;;;;;5056029;28;20540;-81
2024/03/12 07:12:09;;;;;;;0.50;0.50;;;7.40;99.90;;;;;;5055698;28;20533;-81
2024/03/12 07:14:41;;;;;;;1.93;0.83;;;7.40;99.90;;;;;;5058297;28;20437;-81
2024/03/12 07:17:09;;;;;;;0.60;0.60;;;7.40;99.90;;;;;;5056476;28;20473;-82
2024/03/12 07:19:37;;;;;;;1.80;1.07;;;7.60;99.90;;;;;;5055944;28;20772;-82
2024/03/12 07:22:07;;;;;;;0.53;0.50;;;7.60;99.90;;;;;;5057429;28;20489;-82
2024/03/12 07:24:34;;;;;;;1.00;0.50;;;7.60;99.90;;;;;;5056407;28;20481;-81
2024/03/12 07:27:01;;;;;;;0.63;0.60;;;7.50;99.90;;;;;;5056515;28;20454;-82
2024/03/12 07:29:28;;;;;;;0.40;0.33;;;7.70;99.90;;;;;;5058668;28;20818;-82
2024/03/12 07:31:56;;;;;;;1.13;0.70;;;7.60;99.90;;;;;;5057131;28;20425;-82
2024/03/12 07:34:22;;;;;;;0.53;0.53;;;7.60;99.90;;;;;;5056914;28;20422;-82
2024/03/12 07:36:49;;;;;;;0.50;0.50;;;7.60;99.90;;;;;;5056165;28;20407;-81
2024/03/12 07:39:25;;;;;;;0.90;0.50;;;7.80;99.90;;;;;;5055766;28;20480;-81
2024/03/12 07:41:54;;;;;;;2.70;0.80;;;7.60;99.90;;;;;;5056040;28;20469;-82
2024/03/12 07:44:22;;;;;;;1.17;0.60;;;7.50;99.90;;;;;;5055137;28;20454;-80
2024/03/12 07:46:49;;;;;;;0.50;0.50;;;7.60;99.90;;;;;;5056171;28;20457;-81
2024/03/12 07:49:20;;;;;;;0.73;0.70;;;7.50;99.90;;;;;;5055577;28;20450;-82
2024/03/12 07:51:49;;;;;;;1.37;0.70;;;7.40;99.90;;;;;;5055374;28;20472;-80
2024/03/12 07:54:18;;;;;;;0.50;0.40;;;7.40;99.90;;;;;;5055484;28;20445;-81
2024/03/12 07:56:48;;;;;;;0.70;0.60;;;7.50;99.90;;;;;;5054927;28;20947;-82
2024/03/12 07:59:16;;;;;;;0.43;0.43;;;7.80;99.90;;;;;;5055581;28;20449;-81
2024/03/12 08:01:42;;;;;;;0.73;0.40;;;7.60;99.90;;;;;;5055417;28;20445;-82
2024/03/12 08:04:09;;;;;;;0.43;0.43;;;7.60;99.90;;;;;;5055009;28;20434;-82
2024/03/12 08:06:38;;;;;;;0.57;0.50;;;7.60;99.90;;;;;;5055228;28;20481;-81
2024/03/12 08:09:06;;;;;;;5.60;0.43;;;7.60;99.90;;;;;;5054717;28;20500;-81
2024/03/12 08:11:33;;;;;;;0.50;0.50;;;7.60;99.90;;;;;;5055356;28;20457;-82
2024/03/12 08:14:00;;;;;;;0.60;0.50;;;7.50;99.90;;;;;;5055359;28;20453;-81
2024/03/12 08:16:29;;;;;;;0.40;0.40;;;7.50;99.90;;;;;;5055002;28;20442;-81
2024/03/12 08:18:58;;;;;;;1.80;0.53;;;7.50;99.90;;;;;;5055002;28;20518;-82
2024/03/12 08:21:27;;;;;;;1.03;0.87;;;7.30;99.90;;;;;;5056021;28;20438;-80
2024/03/12 08:23:56;;;;;;;1.90;0.50;;;7.30;99.90;;;;;;5055561;28;20474;-81
2024/03/12 08:26:22;;;;;;;0.57;0.57;;;7.30;99.90;;;;;;5056508;28;20515;-81
2024/03/12 08:28:51;;;;;;;1.80;0.70;;;7.30;99.90;;;;;;5054858;28;20469;-82
2024/03/12 08:31:19;;;;;;;0.50;0.50;;;7.30;99.90;;;;;;5059183;28;20461;-82
2024/03/12 08:33:45;;;;;;;0.80;0.70;;;7.40;99.90;;;;;;5058546;28;20456;-82
2024/03/12 08:36:13;;;;;;;0.60;0.60;;;7.40;99.90;;;;;;5059157;28;20456;-81
2024/03/12 08:38:40;;;;;;;0.60;0.50;;;7.50;99.90;;;;;;5059272;28;20477;-82
2024/03/12 08:41:09;;;;;;;0.60;0.53;;;7.70;99.90;;;;;;5058799;28;20453;-81
2024/03/12 08:43:37;;;;;;;0.67;0.67;;;8.10;99.90;;;;;;5058321;28;21002;-81
2024/03/12 08:46:05;;;;;;;0.40;0.40;;;8.00;99.90;;;;;;5058464;28;20488;-81
2024/03/12 08:48:33;;;;;;;0.97;0.50;;;8.00;99.90;;;;;;5058497;28;20461;-82
2024/03/12 08:51:01;;;;;;;0.80;0.40;;;8.10;99.90;;;;;;5058454;28;20449;-81
2024/03/12 08:53:27;;;;;;;0.83;0.60;;;8.20;99.90;;;;;;5059028;28;20449;-80
2024/03/12 08:55:54;;;;;;;1.80;0.40;;;8.30;99.90;;;;;;5058352;28;20454;-82
2024/03/12 08:58:23;;;;;;;0.83;0.60;;;8.40;99.90;;;;;;5057730;28;20458;-82
2024/03/12 09:00:49;;;;;;;0.60;0.40;;;8.50;99.90;;;;;;5058048;28;20549;-81
2024/03/12 09:03:18;;;;;;;0.87;0.70;;;8.50;99.90;;;;;;5058359;28;20477;-81
2024/03/12 09:05:45;;;;;;;0.93;0.50;;;8.40;99.90;;;;;;5058538;28;20482;-82
2024/03/12 09:08:11;;;;;;;0.60;0.50;;;8.50;99.90;;;;;;5058062;28;20461;-82
2024/03/12 09:10:38;;;;;;;0.67;0.40;;;8.40;99.90;;;;;;5057761;28;20437;-83
2024/03/12 09:13:06;;;;;;;0.43;0.40;;;8.30;99.90;;;;;;5063441;28;20927;-82
2024/03/12 09:15:35;;;;;;;0.40;0.40;;;8.30;99.90;;;;;;5072525;28;20449;-83
2024/03/12 09:18:04;;;;;;;0.40;0.40;;;8.30;99.90;;;;;;5073777;28;20462;-83
2024/03/12 09:20:31;;;;;;;0.80;0.40;;;8.30;99.90;;;;;;5072895;28;20457;-82
2024/03/12 09:22:59;;;;;;;0.40;0.40;;;8.30;99.90;;;;;;5070339;28;20496;-82
2024/03/12 09:25:26;;;;;;;0.40;0.40;;;8.30;99.90;;;;;;5063237;28;20572;-81
2024/03/12 09:27:53;;;;;;;0.60;0.50;;;8.30;99.90;;;;;;5069339;28;20462;-82
2024/03/12 09:30:20;;;;;;;0.40;0.40;;;8.30;99.90;;;;;;5061232;28;21034;-82
2024/03/12 09:32:48;;;;;;;0.50;0.50;;;8.40;99.90;;;;;;5059822;28;20438;-82
2024/03/12 09:35:15;;;;;;;0.80;0.50;;;8.40;99.90;;;;;;5067127;28;20457;-82
2024/03/12 09:37:42;;;;;;;0.90;0.80;;;8.50;99.90;;;;;;5061199;28;20541;-83
2024/03/12 09:40:11;;;;;;;0.60;0.60;;;8.50;99.90;;;;;;5061305;28;20446;-81
2024/03/12 09:42:38;;;;;;;0.80;0.60;;;8.50;99.90;;;;;;5059035;28;20485;-81
2024/03/12 09:45:08;;;;;;;1.10;0.53;;;8.40;99.90;;;;;;5060605;28;20454;-81
2024/03/12 09:47:35;;;;;;;0.50;0.50;;;8.50;99.90;;;;;;5080422;28;20450;-81
2024/03/12 09:50:10;;;;;;;0.40;0.40;;;8.50;99.90;;;;;;5080317;28;20497;-82
2024/03/12 09:52:38;;;;;;;6.10;1.40;;;8.40;99.90;;;;;;5080417;28;20438;-81
2024/03/12 09:55:06;;;;;;;0.77;0.70;;;8.30;99.90;;;;;;5071236;28;20446;-82
2024/03/12 09:57:33;;;;;;;1.37;0.70;;;8.30;99.90;;;;;;5059677;28;20494;-81
2024/03/12 10:00:00;;;;;;;0.60;0.57;;;8.50;99.90;;;;;;5059076;28;21041;-82
2024/03/12 10:02:27;;;;;;;0.70;0.70;;;8.60;99.90;;;;;;5059456;28;20879;-81
2024/03/12 10:04:55;;;;;;;2.10;0.73;;;8.70;99.90;;;;;;5058139;28;20982;-81
2024/03/12 10:07:24;;;;;;;0.67;0.67;;;8.70;99.90;;;;;;5058676;28;20469;-81
2024/03/12 10:09:51;;;;;;;0.50;0.50;;;8.70;99.90;;;;;;5060536;28;20866;-83
2024/03/12 10:12:20;;;;;;;1.13;0.63;;;8.60;99.90;;;;;;5058622;28;20450;-83
2024/03/12 10:14:46;;;;;;;1.63;0.90;;;8.60;99.90;;;;;;5058744;28;20474;-82
2024/03/12 10:17:14;;;;;;;0.77;0.50;;;8.60;99.90;;;;;;5057633;28;20556;-82
2024/03/12 10:19:41;;;;;;;0.40;0.40;;;8.60;99.90;;;;;;5057165;28;20923;-81
2024/03/12 10:22:09;;;;;;;0.83;0.70;;;8.60;99.90;;;;;;5057532;28;20838;-83
2024/03/12 10:24:38;;;;;;;0.90;0.80;;;8.70;99.90;;;;;;5057047;28;20481;-83
2024/03/12 10:27:06;;;;;;;0.40;0.40;;;8.90;99.90;;;;;;5056709;28;20446;-83
2024/03/12 10:29:35;;;;;;;0.50;0.50;;;9.00;99.90;;;;;;5056751;28;20815;-83
2024/03/12 10:32:17;;;;;;;0.70;0.60;;;9.10;99.90;;;;;;5057758;28;20442;-83
2024/03/12 10:34:44;;;;;;;0.73;0.40;;;9.10;99.90;;;;;;5058214;28;20476;-83
2024/03/12 10:37:26;;;;;;;1.07;1.07;;;9.20;99.90;;;;;;5057448;28;21085;-83
2024/03/12 10:39:54;;;;;;;0.80;0.50;;;9.00;99.90;;;;;;5057704;28;20426;-83
2024/03/12 10:42:22;;;;;;;0.50;0.50;;;9.20;99.90;;;;;;5056963;28;20810;-83
2024/03/12 10:44:49;;;;;;;0.40;0.40;;;9.30;99.90;;;;;;5057171;28;20551;-83
2024/03/12 10:47:16;;;;;;;0.70;0.40;;;9.30;99.90;;;;;;5056866;28;20457;-81
2024/03/12 10:49:47;;;;;;;1.60;0.73;;;9.10;99.90;;;;;;5057291;28;20520;-81
2024/03/12 10:52:17;;;;;;;1.50;0.50;;;9.20;99.90;;;;;;5056957;28;20429;-81
2024/03/12 10:54:45;;;;;;;0.50;0.50;;;9.30;99.90;;;;;;5056981;28;20477;-81
2024/03/12 10:57:14;;;;;;;0.40;0.40;;;9.40;99.90;;;;;;5056151;28;20974;-81
2024/03/12 10:59:43;;;;;;;0.40;0.40;;;9.30;99.90;;;;;;5056817;28;20442;-81
2024/03/12 11:02:11;;;;;;;0.70;0.30;;;9.30;99.90;;;;;;5056732;28;20482;-81
2024/03/12 11:04:39;;;;;;;0.50;0.50;;;9.40;99.90;;;;;;5056399;28;20531;-81
2024/03/12 11:07:08;;;;;;;0.60;0.33;;;9.40;99.90;;;;;;5056187;28;20422;-81
2024/03/12 11:09:35;;;;;;;0.33;0.30;;;9.40;99.90;;;;;;5055873;28;20446;-81
2024/03/12 11:12:04;;;;;;;0.40;0.40;;;9.40;99.90;;;;;;5055847;28;20454;-81
2024/03/12 11:14:32;;;;;;;0.60;0.30;;;9.40;99.90;;;;;;5055710;28;20448;-81
2024/03/12 11:17:00;;;;;;;0.30;0.30;;;9.30;99.90;;;;;;5056049;28;20452;-81
2024/03/12 11:19:27;;;;;;;1.37;0.67;;;9.30;99.90;;;;;;5056259;28;20450;-81
2024/03/12 11:21:55;;;;;;;0.63;0.40;;;9.40;99.90;;;;;;5055379;28;20930;-81
2024/03/12 11:24:29;;;;;;;0.47;0.30;;;9.50;99.90;;;;;;5055544;28;20492;-81
2024/03/12 11:26:59;;;;;;;0.67;0.40;;;9.50;99.90;;;;;;5055345;28;20468;-81
2024/03/12 11:30:08;;;;;;;1.37;0.50;;;9.50;99.90;;;;;;5055873;28;20951;-81
2024/03/12 11:32:35;;;;;;;0.60;0.50;;;9.30;99.90;;;;;;5065145;28;20434;-82
2024/03/12 11:35:08;;;;;;;1.47;0.50;;;9.10;99.90;;;;;;5059079;28;20465;-82
2024/03/12 11:37:35;;;;;;;0.57;0.40;;;8.80;99.90;;;;;;5058647;28;20496;-82
2024/03/12 11:40:27;;;;;;;0.30;0.30;;;8.80;99.90;;;;;;5058489;28;20442;-81
2024/03/12 11:42:55;;;;;;;0.50;0.50;;;8.70;99.90;;;;;;5062411;28;20414;-82
2024/03/12 11:45:38;;;;;;;2.20;0.50;;;8.70;99.90;;;;;;5057400;28;20446;-83
2024/03/12 11:48:07;;;;;;;0.60;0.43;;;8.70;99.90;;;;;;5058030;28;20457;-81
2024/03/12 11:50:36;;;;;;;7.90;0.60;;;8.70;99.90;;;;;;5057171;28;20452;-81
2024/03/12 11:53:15;;;;;;;0.70;0.40;;;8.80;99.90;;;;;;5057229;28;20773;-82
2024/03/12 11:55:54;;;;;;;0.47;0.47;;;8.80;99.90;;;;;;5057170;28;20434;-82
2024/03/12 11:58:21;;;;;;;0.50;0.40;;;8.80;99.90;;;;;;5056327;28;20469;-82
2024/03/12 12:00:50;;;;;;;0.60;0.40;;;8.80;99.90;;;;;;5056663;28;20452;-82
2024/03/12 12:03:17;;;;;;;0.50;0.40;;;8.70;99.90;;;;;;5055933;28;20482;-82
2024/03/12 12:05:44;;;;;;;0.70;0.33;;;8.70;99.90;;;;;;5059472;28;20453;-82
2024/03/12 12:08:11;;;;;;;0.40;0.30;;;8.60;99.90;;;;;;5060420;28;21002;-82
2024/03/12 12:10:38;;;;;;;0.30;0.30;;;8.60;99.90;;;;;;5060419;28;20451;-83
2024/03/12 12:13:14;;;;;;;0.60;0.60;;;8.80;99.90;;;;;;5060142;28;20457;-82
2024/03/12 12:15:41;;;;;;;0.60;0.57;;;8.80;99.90;;;;;;5060069;28;20422;-82
2024/03/12 12:18:10;;;;;;;0.90;0.50;;;8.90;99.90;;;;;;5059657;28;20866;-82
2024/03/12 12:20:38;;;;;;;0.77;0.77;;;8.90;99.90;;;;;;5059235;28;20438;-82
2024/03/12 12:23:05;;;;;;;1.47;0.40;;;8.90;99.90;;;;;;5062247;28;20499;-82
2024/03/12 12:25:32;;;;;;;0.63;0.60;;;8.80;99.90;;;;;;5059069;28;20838;-82
2024/03/12 12:27:59;;;;;;;0.90;0.50;;;8.90;99.90;;;;;;5060903;28;20507;-82
2024/03/12 12:30:27;;;;;;;1.17;0.60;;;9.00;99.90;;;;;;5061044;28;20536;-82
2024/03/12 12:32:54;;;;;;;0.90;0.77;;;9.10;99.90;;;;;;5059163;28;20446;-82
2024/03/12 12:35:22;;;;;;;2.07;0.90;;;9.00;99.90;;;;;;5058489;28;20442;-82
2024/03/12 12:37:50;;;;;;;1.00;0.87;;;10.40;99.90;;;;;;5078475;28;20473;-82
2024/03/12 12:40:17;;;;;;;1.13;0.63;;;9.00;99.90;;;;;;5081025;28;20434;-82
2024/03/12 12:42:45;;;;;;;1.73;0.90;;;9.00;99.90;;;;;;5079642;28;20464;-82
2024/03/12 12:45:13;;;;;;;1.90;0.93;;;9.10;99.90;;;;;;5074452;28;20576;-81
2024/03/12 12:47:40;;;;;;;1.90;0.97;;;9.10;99.90;;;;;;5061327;28;21048;-82
2024/03/12 12:50:11;;;;;;;2.53;1.20;;;9.20;99.90;;;;;;5061071;28;20430;-82
2024/03/12 12:52:40;;;;;;;2.57;0.93;;;9.20;99.90;;;;;;5062007;28;20438;-82
2024/03/12 12:55:09;;;;;;;1.37;1.00;;;9.30;99.90;;;;;;5061642;28;20454;-82
2024/03/12 12:57:42;;;;;;;3.90;1.00;;;9.40;99.90;;;;;;5061581;28;20469;-82
2024/03/12 13:00:21;;;;;;;1.20;0.60;;;9.60;99.90;;;;;;5061168;28;20440;-83
2024/03/12 13:02:48;;;;;;;2.53;0.83;;;9.70;99.90;;;;;;5062338;28;20535;-82
2024/03/12 13:05:20;;;;;;;5.63;1.60;;;9.90;99.90;;;;;;5060589;28;21056;-83
2024/03/12 13:07:48;;;;;;;3.47;1.10;;;10.20;99.90;;;;;;5060943;28;20512;-82
2024/03/12 13:10:18;;;;;;;0.90;0.73;;;10.30;99.90;;;;;;5061554;28;20446;-82